sensor_id;sensor_type;location;lat;lon;timestamp;pressure;altitude;pressure_sealevel;temperature;humidity
8366;BME280;4220;42.502;24.188;2023-04-07T00:01:50;94941.59;;;2.85;87.73
8366;BME280;4220;42.502;24.188;2023-04-07T00:04:17;94938.50;;;2.81;88.04
8366;BME280;4220;42.502;24.188;2023-04-07T00:06:43;94954.84;;;2.83;88.28
8366;BME280;4220;42.502;24.188;2023-04-07T00:09:10;94960.09;;;2.83;87.97
8366;BME280;4220;42.502;24.188;2023-04-07T00:11:39;94959.75;;;2.86;87.52
8366;BME280;4220;42.502;24.188;2023-04-07T00:14:05;94958.81;;;2.79;88.24
8366;BME280;4220;42.502;24.188;2023-04-07T00:16:32;94960.63;;;2.79;88.05
8366;BME280;4220;42.502;24.188;2023-04-07T00:18:59;94958.34;;;2.76;88.67
8366;BME280;4220;42.502;24.188;2023-04-07T00:21:26;94963.06;;;2.80;88.43
8366;BME280;4220;42.502;24.188;2023-04-07T00:23:53;94968.28;;;2.80;87.95
8366;BME280;4220;42.502;24.188;2023-04-07T00:26:20;94971.56;;;2.82;88.66
8366;BME280;4220;42.502;24.188;2023-04-07T00:28:48;94963.16;;;2.72;88.30
8366;BME280;4220;42.502;24.188;2023-04-07T00:31:15;94960.94;;;2.61;88.58
8366;BME280;4220;42.502;24.188;2023-04-07T00:33:41;94953.44;;;2.58;89.18
8366;BME280;4220;42.502;24.188;2023-04-07T00:36:08;94962.22;;;2.65;89.40
8366;BME280;4220;42.502;24.188;2023-04-07T00:38:35;94947.22;;;2.59;89.66
8366;BME280;4220;42.502;24.188;2023-04-07T00:41:02;94953.91;;;2.61;89.70
8366;BME280;4220;42.502;24.188;2023-04-07T00:43:29;94953.78;;;2.55;90.22
8366;BME280;4220;42.502;24.188;2023-04-07T00:45:57;94956.28;;;2.48;90.62
8366;BME280;4220;42.502;24.188;2023-04-07T00:48:24;94948.38;;;2.34;90.72
8366;BME280;4220;42.502;24.188;2023-04-07T00:50:51;94935.47;;;2.32;91.22
8366;BME280;4220;42.502;24.188;2023-04-07T00:53:18;94950.00;;;2.35;91.56
8366;BME280;4220;42.502;24.188;2023-04-07T00:55:45;94956.41;;;2.32;92.22
8366;BME280;4220;42.502;24.188;2023-04-07T00:58:12;94951.19;;;2.32;91.94
8366;BME280;4220;42.502;24.188;2023-04-07T01:00:44;94954.44;;;2.34;91.32
8366;BME280;4220;42.502;24.188;2023-04-07T01:03:18;94936.88;;;2.20;92.33
8366;BME280;4220;42.502;24.188;2023-04-07T01:05:52;94953.50;;;2.27;92.80
8366;BME280;4220;42.502;24.188;2023-04-07T01:08:23;94951.84;;;2.26;92.32
8366;BME280;4220;42.502;24.188;2023-04-07T01:10:55;94941.09;;;2.21;92.41
8366;BME280;4220;42.502;24.188;2023-04-07T01:13:25;94954.31;;;2.28;92.37
8366;BME280;4220;42.502;24.188;2023-04-07T01:15:54;94951.22;;;2.24;92.89
8366;BME280;4220;42.502;24.188;2023-04-07T01:18:27;94952.56;;;2.20;93.34
8366;BME280;4220;42.502;24.188;2023-04-07T01:21:00;94935.81;;;2.07;93.99
8366;BME280;4220;42.502;24.188;2023-04-07T01:23:46;94942.84;;;2.06;94.65
8366;BME280;4220;42.502;24.188;2023-04-07T01:26:19;94952.19;;;2.01;95.40
8366;BME280;4220;42.502;24.188;2023-04-07T01:28:56;94949.47;;;1.94;95.31
8366;BME280;4220;42.502;24.188;2023-04-07T01:31:30;94950.31;;;1.86;95.48
8366;BME280;4220;42.502;24.188;2023-04-07T01:33:59;94947.88;;;1.85;96.28
8366;BME280;4220;42.502;24.188;2023-04-07T01:36:30;94954.88;;;1.84;96.33
8366;BME280;4220;42.502;24.188;2023-04-07T01:38:59;94951.97;;;1.79;96.74
8366;BME280;4220;42.502;24.188;2023-04-07T01:41:27;94951.84;;;1.73;96.66
8366;BME280;4220;42.502;24.188;2023-04-07T01:43:56;94953.66;;;1.72;97.06
8366;BME280;4220;42.502;24.188;2023-04-07T01:46:24;94955.81;;;1.61;97.87
8366;BME280;4220;42.502;24.188;2023-04-07T01:48:53;94945.75;;;1.50;99.00
8366;BME280;4220;42.502;24.188;2023-04-07T01:51:21;94946.44;;;1.44;99.29
8366;BME280;4220;42.502;24.188;2023-04-07T01:53:49;94958.34;;;1.38;100.00
8366;BME280;4220;42.502;24.188;2023-04-07T01:56:16;94947.56;;;1.41;100.00
8366;BME280;4220;42.502;24.188;2023-04-07T01:58:43;94947.56;;;1.41;100.00
8366;BME280;4220;42.502;24.188;2023-04-07T02:01:10;94950.00;;;1.43;100.00
8366;BME280;4220;42.502;24.188;2023-04-07T02:03:42;94919.59;;;1.11;100.00
8366;BME280;4220;42.502;24.188;2023-04-07T02:06:16;94942.56;;;1.23;100.00
8366;BME280;4220;42.502;24.188;2023-04-07T02:08:50;94947.66;;;1.17;100.00
8366;BME280;4220;42.502;24.188;2023-04-07T02:11:20;94948.78;;;1.22;100.00
8366;BME280;4220;42.502;24.188;2023-04-07T02:13:48;94948.94;;;1.29;100.00
8366;BME280;4220;42.502;24.188;2023-04-07T02:16:17;94959.06;;;1.24;100.00
8366;BME280;4220;42.502;24.188;2023-04-07T02:18:45;94939.19;;;1.15;100.00
8366;BME280;4220;42.502;24.188;2023-04-07T02:21:15;94944.41;;;1.15;100.00
8366;BME280;4220;42.502;24.188;2023-04-07T02:23:42;94950.41;;;1.23;100.00
8366;BME280;4220;42.502;24.188;2023-04-07T02:26:09;94941.75;;;1.23;100.00
8366;BME280;4220;42.502;24.188;2023-04-07T02:28:36;94948.22;;;1.43;100.00
8366;BME280;4220;42.502;24.188;2023-04-07T02:31:03;94943.94;;;1.50;100.00
8366;BME280;4220;42.502;24.188;2023-04-07T02:33:30;94950.47;;;1.54;100.00
8366;BME280;4220;42.502;24.188;2023-04-07T02:35:56;94935.13;;;1.51;99.82
8366;BME280;4220;42.502;24.188;2023-04-07T02:38:25;94858.63;;;0.96;99.74
8366;BME280;4220;42.502;24.188;2023-04-07T02:40:51;94907.56;;;1.41;99.71
8366;BME280;4220;42.502;24.188;2023-04-07T02:43:19;94947.75;;;1.78;99.14
8366;BME280;4220;42.502;24.188;2023-04-07T02:45:46;94950.31;;;1.86;98.50
8366;BME280;4220;42.502;24.188;2023-04-07T02:48:13;94952.88;;;1.94;97.96
8366;BME280;4220;42.502;24.188;2023-04-07T02:50:40;94927.78;;;1.85;97.88
8366;BME280;4220;42.502;24.188;2023-04-07T02:53:07;94955.63;;;2.01;98.02
8366;BME280;4220;42.502;24.188;2023-04-07T02:55:36;94956.56;;;2.08;97.51
8366;BME280;4220;42.502;24.188;2023-04-07T02:58:02;94963.63;;;1.99;97.03
8366;BME280;4220;42.502;24.188;2023-04-07T03:00:29;94957.59;;;1.99;97.10
8366;BME280;4220;42.502;24.188;2023-04-07T03:02:56;94960.00;;;2.09;96.45
8366;BME280;4220;42.502;24.188;2023-04-07T03:05:23;94964.09;;;2.11;96.75
8366;BME280;4220;42.502;24.188;2023-04-07T03:07:50;94961.28;;;2.13;96.33
8366;BME280;4220;42.502;24.188;2023-04-07T03:10:17;94963.91;;;2.13;96.28
8366;BME280;4220;42.502;24.188;2023-04-07T03:12:45;94962.78;;;2.07;96.07
8366;BME280;4220;42.502;24.188;2023-04-07T03:15:12;94960.06;;;2.01;96.12
8366;BME280;4220;42.502;24.188;2023-04-07T03:17:39;94963.28;;;2.03;96.13
8366;BME280;4220;42.502;24.188;2023-04-07T03:20:07;94959.88;;;2.02;95.68
8366;BME280;4220;42.502;24.188;2023-04-07T03:22:34;94963.81;;;1.98;95.46
8366;BME280;4220;42.502;24.188;2023-04-07T03:25:01;94957.88;;;1.81;96.22
8366;BME280;4220;42.502;24.188;2023-04-07T03:27:27;94961.63;;;1.79;97.07
8366;BME280;4220;42.502;24.188;2023-04-07T03:29:56;94918.19;;;1.47;97.64
8366;BME280;4220;42.502;24.188;2023-04-07T03:32:23;94959.78;;;1.57;97.67
8366;BME280;4220;42.502;24.188;2023-04-07T03:34:49;94966.19;;;1.38;99.87
8366;BME280;4220;42.502;24.188;2023-04-07T03:37:16;94952.63;;;1.43;100.00
8366;BME280;4220;42.502;24.188;2023-04-07T03:39:43;94965.81;;;1.57;99.89
8366;BME280;4220;42.502;24.188;2023-04-07T03:42:10;94955.53;;;1.56;99.67
8366;BME280;4220;42.502;24.188;2023-04-07T03:44:37;94965.78;;;1.65;99.85
8366;BME280;4220;42.502;24.188;2023-04-07T03:47:05;94972.47;;;1.68;99.97
8366;BME280;4220;42.502;24.188;2023-04-07T03:49:32;94978.19;;;1.71;100.00
8366;BME280;4220;42.502;24.188;2023-04-07T03:51:58;94978.31;;;1.70;100.00
8366;BME280;4220;42.502;24.188;2023-04-07T03:54:25;94973.38;;;1.44;100.00
8366;BME280;4220;42.502;24.188;2023-04-07T03:56:52;94974.00;;;1.54;100.00
8366;BME280;4220;42.502;24.188;2023-04-07T03:59:19;94982.78;;;1.61;100.00
8366;BME280;4220;42.502;24.188;2023-04-07T04:01:46;94988.34;;;1.58;100.00
8366;BME280;4220;42.502;24.188;2023-04-07T04:04:14;94986.44;;;1.44;100.00
8366;BME280;4220;42.502;24.188;2023-04-07T04:06:41;94991.16;;;1.41;100.00
8366;BME280;4220;42.502;24.188;2023-04-07T04:09:08;94992.13;;;1.48;100.00
8366;BME280;4220;42.502;24.188;2023-04-07T04:11:34;94984.78;;;1.51;100.00
8366;BME280;4220;42.502;24.188;2023-04-07T04:14:02;94990.31;;;1.56;100.00
8366;BME280;4220;42.502;24.188;2023-04-07T04:16:29;94992.75;;;1.58;100.00
8366;BME280;4220;42.502;24.188;2023-04-07T04:18:56;94992.31;;;1.46;100.00
8366;BME280;4220;42.502;24.188;2023-04-07T04:21:24;94996.25;;;1.42;100.00
8366;BME280;4220;42.502;24.188;2023-04-07T04:23:51;94991.16;;;1.41;100.00
8366;BME280;4220;42.502;24.188;2023-04-07T04:26:18;95000.97;;;1.47;100.00
8366;BME280;4220;42.502;24.188;2023-04-07T04:28:45;95002.44;;;1.49;100.00
8366;BME280;4220;42.502;24.188;2023-04-07T04:31:12;95012.56;;;1.44;100.00
8366;BME280;4220;42.502;24.188;2023-04-07T04:33:39;95018.63;;;1.45;100.00
8366;BME280;4220;42.502;24.188;2023-04-07T04:36:06;94973.63;;;1.10;100.00
8366;BME280;4220;42.502;24.188;2023-04-07T04:38:34;95007.50;;;1.43;100.00
8366;BME280;4220;42.502;24.188;2023-04-07T04:41:01;95009.63;;;1.47;100.00
8366;BME280;4220;42.502;24.188;2023-04-07T04:43:28;95019.06;;;1.56;100.00
8366;BME280;4220;42.502;24.188;2023-04-07T04:45:55;95014.66;;;1.57;100.00
8366;BME280;4220;42.502;24.188;2023-04-07T04:48:22;95020.66;;;1.65;100.00
8366;BME280;4220;42.502;24.188;2023-04-07T04:50:49;95021.50;;;1.58;100.00
8366;BME280;4220;42.502;24.188;2023-04-07T04:53:16;95009.31;;;1.42;100.00
8366;BME280;4220;42.502;24.188;2023-04-07T04:55:44;95024.50;;;1.30;100.00
8366;BME280;4220;42.502;24.188;2023-04-07T04:58:16;95021.78;;;1.08;100.00
8366;BME280;4220;42.502;24.188;2023-04-07T05:00:43;95019.31;;;1.22;100.00
8366;BME280;4220;42.502;24.188;2023-04-07T05:03:10;95000.03;;;1.23;100.00
8366;BME280;4220;42.502;24.188;2023-04-07T05:05:37;95028.88;;;1.54;100.00
8366;BME280;4220;42.502;24.188;2023-04-07T05:08:04;95023.97;;;1.51;100.00
8366;BME280;4220;42.502;24.188;2023-04-07T05:10:31;95029.66;;;1.63;100.00
8366;BME280;4220;42.502;24.188;2023-04-07T05:12:59;95031.41;;;1.78;100.00
8366;BME280;4220;42.502;24.188;2023-04-07T05:15:26;95026.16;;;1.86;100.00
8366;BME280;4220;42.502;24.188;2023-04-07T05:17:53;95019.25;;;1.93;99.62
8366;BME280;4220;42.502;24.188;2023-04-07T05:20:20;95030.69;;;1.92;99.17
8366;BME280;4220;42.502;24.188;2023-04-07T05:22:47;95040.09;;;2.10;98.67
8366;BME280;4220;42.502;24.188;2023-04-07T05:25:14;94997.31;;;1.94;97.85
8366;BME280;4220;42.502;24.188;2023-04-07T05:27:41;95026.94;;;2.26;97.31
8366;BME280;4220;42.502;24.188;2023-04-07T05:30:10;95045.94;;;2.50;96.99
8366;BME280;4220;42.502;24.188;2023-04-07T05:32:37;95026.59;;;2.51;97.10
8366;BME280;4220;42.502;24.188;2023-04-07T05:35:04;95043.25;;;2.58;97.80
8366;BME280;4220;42.502;24.188;2023-04-07T05:37:32;95023.59;;;2.62;98.67
8366;BME280;4220;42.502;24.188;2023-04-07T05:39:59;95005.72;;;2.66;99.11
8366;BME280;4220;42.502;24.188;2023-04-07T05:42:25;95022.59;;;2.86;97.50
8366;BME280;4220;42.502;24.188;2023-04-07T05:44:52;94992.69;;;2.81;96.75
8366;BME280;4220;42.502;24.188;2023-04-07T05:47:21;95040.59;;;3.26;96.43
8366;BME280;4220;42.502;24.188;2023-04-07T05:49:48;95038.78;;;3.42;94.72
8366;BME280;4220;42.502;24.188;2023-04-07T05:52:14;95031.47;;;3.52;93.12
8366;BME280;4220;42.502;24.188;2023-04-07T05:54:41;95039.19;;;3.68;90.73
8366;BME280;4220;42.502;24.188;2023-04-07T05:57:08;95046.88;;;3.84;89.01
8366;BME280;4220;42.502;24.188;2023-04-07T05:59:35;95038.38;;;3.96;87.54
8366;BME280;4220;42.502;24.188;2023-04-07T06:02:02;95031.03;;;4.07;87.20
8366;BME280;4220;42.502;24.188;2023-04-07T06:04:30;95027.94;;;4.18;85.75
8366;BME280;4220;42.502;24.188;2023-04-07T06:06:59;95042.31;;;4.36;84.46
8366;BME280;4220;42.502;24.188;2023-04-07T06:09:26;95033.25;;;4.39;83.46
8366;BME280;4220;42.502;24.188;2023-04-07T06:11:53;95033.75;;;4.49;81.46
8366;BME280;4220;42.502;24.188;2023-04-07T06:14:21;95043.00;;;4.45;81.02
8366;BME280;4220;42.502;24.188;2023-04-07T06:16:48;95039.91;;;4.56;81.30
8366;BME280;4220;42.502;24.188;2023-04-07T06:19:14;94993.66;;;4.40;78.36
8366;BME280;4220;42.502;24.188;2023-04-07T06:21:43;95046.97;;;4.55;76.03
8366;BME280;4220;42.502;24.188;2023-04-07T06:24:09;94998.00;;;4.12;73.66
8366;BME280;4220;42.502;24.188;2023-04-07T06:26:38;95047.81;;;4.41;73.70
8366;BME280;4220;42.502;24.188;2023-04-07T06:29:05;95045.81;;;4.43;74.55
8366;BME280;4220;42.502;24.188;2023-04-07T06:31:32;95039.38;;;4.46;74.15
8366;BME280;4220;42.502;24.188;2023-04-07T06:33:59;95036.72;;;4.60;73.25
8366;BME280;4220;42.502;24.188;2023-04-07T06:36:26;95037.69;;;4.74;73.53
8366;BME280;4220;42.502;24.188;2023-04-07T06:38:55;95042.06;;;4.88;73.06
8366;BME280;4220;42.502;24.188;2023-04-07T06:41:22;95044.22;;;4.85;71.83
8366;BME280;4220;42.502;24.188;2023-04-07T06:43:49;95042.63;;;4.84;71.67
8366;BME280;4220;42.502;24.188;2023-04-07T06:46:16;95050.91;;;4.87;71.67
8366;BME280;4220;42.502;24.188;2023-04-07T06:48:43;95035.00;;;4.89;70.77
8366;BME280;4220;42.502;24.188;2023-04-07T06:51:10;95041.47;;;4.93;70.91
8366;BME280;4220;42.502;24.188;2023-04-07T06:53:37;95035.53;;;4.84;70.87
8366;BME280;4220;42.502;24.188;2023-04-07T06:56:08;95050.28;;;5.06;70.72
8366;BME280;4220;42.502;24.188;2023-04-07T06:58:36;95039.84;;;5.13;70.49
8366;BME280;4220;42.502;24.188;2023-04-07T07:01:03;95046.16;;;5.18;69.88
8366;BME280;4220;42.502;24.188;2023-04-07T07:03:31;95031.59;;;5.16;70.03
8366;BME280;4220;42.502;24.188;2023-04-07T07:05:59;95031.69;;;5.29;70.35
8366;BME280;4220;42.502;24.188;2023-04-07T07:08:27;95051.06;;;5.49;70.17
8366;BME280;4220;42.502;24.188;2023-04-07T07:10:55;95043.66;;;5.59;69.83
8366;BME280;4220;42.502;24.188;2023-04-07T07:13:25;95045.56;;;5.44;69.16
8366;BME280;4220;42.502;24.188;2023-04-07T07:15:52;95062.53;;;5.42;69.13
8366;BME280;4220;42.502;24.188;2023-04-07T07:18:19;95061.34;;;5.44;70.30
8366;BME280;4220;42.502;24.188;2023-04-07T07:20:45;95039.47;;;5.44;70.19
8366;BME280;4220;42.502;24.188;2023-04-07T07:23:12;95062.69;;;5.61;69.72
8366;BME280;4220;42.502;24.188;2023-04-07T07:25:39;95064.56;;;5.67;69.02
8366;BME280;4220;42.502;24.188;2023-04-07T07:28:06;95058.09;;;5.70;69.33
8366;BME280;4220;42.502;24.188;2023-04-07T07:30:35;95067.16;;;5.88;68.15
8366;BME280;4220;42.502;24.188;2023-04-07T07:33:04;95071.69;;;6.01;68.73
8366;BME280;4220;42.502;24.188;2023-04-07T07:35:31;95076.00;;;6.09;68.69
8366;BME280;4220;42.502;24.188;2023-04-07T07:37:58;95078.34;;;5.97;67.78
8366;BME280;4220;42.502;24.188;2023-04-07T07:40:25;95063.59;;;6.03;68.82
8366;BME280;4220;42.502;24.188;2023-04-07T07:42:52;95073.06;;;5.97;69.04
8366;BME280;4220;42.502;24.188;2023-04-07T07:45:18;95077.91;;;5.93;67.88
8366;BME280;4220;42.502;24.188;2023-04-07T07:47:47;94989.81;;;5.55;68.75
8366;BME280;4220;42.502;24.188;2023-04-07T07:50:13;95064.25;;;6.11;68.42
8366;BME280;4220;42.502;24.188;2023-04-07T07:52:40;95075.28;;;6.28;68.06
8366;BME280;4220;42.502;24.188;2023-04-07T07:55:08;95066.03;;;6.38;67.59
8366;BME280;4220;42.502;24.188;2023-04-07T07:57:35;95060.34;;;6.41;67.69
8366;BME280;4220;42.502;24.188;2023-04-07T08:00:02;95059.03;;;6.65;67.81
8366;BME280;4220;42.502;24.188;2023-04-07T08:02:29;95052.16;;;6.84;66.71
8366;BME280;4220;42.502;24.188;2023-04-07T08:04:59;95056.44;;;6.91;65.96
8366;BME280;4220;42.502;24.188;2023-04-07T08:07:26;95036.31;;;6.64;67.02
8366;BME280;4220;42.502;24.188;2023-04-07T08:09:53;95059.25;;;6.83;67.30
8366;BME280;4220;42.502;24.188;2023-04-07T08:12:20;95011.16;;;6.62;65.47
8366;BME280;4220;42.502;24.188;2023-04-07T08:14:47;95032.50;;;6.86;65.98
8366;BME280;4220;42.502;24.188;2023-04-07T08:17:14;95061.97;;;7.16;66.90
8366;BME280;4220;42.502;24.188;2023-04-07T08:19:41;95060.56;;;7.13;65.54
8366;BME280;4220;42.502;24.188;2023-04-07T08:22:10;95058.31;;;7.10;66.63
8366;BME280;4220;42.502;24.188;2023-04-07T08:24:37;95041.09;;;7.14;65.75
8366;BME280;4220;42.502;24.188;2023-04-07T08:27:04;95052.25;;;7.23;64.37
8366;BME280;4220;42.502;24.188;2023-04-07T08:29:31;95047.00;;;7.30;66.24
8366;BME280;4220;42.502;24.188;2023-04-07T08:31:58;95055.31;;;7.27;65.44
8366;BME280;4220;42.502;24.188;2023-04-07T08:34:24;95050.44;;;7.37;64.51
8366;BME280;4220;42.502;24.188;2023-04-07T08:36:51;95047.59;;;7.51;63.87
8366;BME280;4220;42.502;24.188;2023-04-07T08:39:20;95052.25;;;7.56;64.55
8366;BME280;4220;42.502;24.188;2023-04-07T08:41:50;95060.19;;;7.69;63.65
8366;BME280;4220;42.502;24.188;2023-04-07T08:44:21;95050.66;;;7.61;63.25
8366;BME280;4220;42.502;24.188;2023-04-07T08:46:50;95046.78;;;7.64;62.58
8366;BME280;4220;42.502;24.188;2023-04-07T08:49:18;95036.22;;;7.70;62.64
8366;BME280;4220;42.502;24.188;2023-04-07T08:51:46;95038.44;;;7.73;62.25
8366;BME280;4220;42.502;24.188;2023-04-07T08:54:14;95043.09;;;7.84;62.75
8366;BME280;4220;42.502;24.188;2023-04-07T08:56:44;95044.94;;;7.77;62.08
8366;BME280;4220;42.502;24.188;2023-04-07T08:59:13;95044.72;;;7.85;61.23
8366;BME280;4220;42.502;24.188;2023-04-07T09:01:40;95061.75;;;7.96;61.85
8366;BME280;4220;42.502;24.188;2023-04-07T09:04:08;95045.75;;;7.91;62.24
8366;BME280;4220;42.502;24.188;2023-04-07T09:06:36;95065.00;;;7.91;62.22
8366;BME280;4220;42.502;24.188;2023-04-07T09:09:03;95046.94;;;7.95;61.37
8366;BME280;4220;42.502;24.188;2023-04-07T09:11:34;95050.13;;;8.23;60.73
8366;BME280;4220;42.502;24.188;2023-04-07T09:14:02;95049.88;;;8.44;61.86
8366;BME280;4220;42.502;24.188;2023-04-07T09:16:29;95041.25;;;8.69;60.67
8366;BME280;4220;42.502;24.188;2023-04-07T09:18:56;95050.78;;;8.76;61.18
8366;BME280;4220;42.502;24.188;2023-04-07T09:21:24;95042.88;;;8.70;61.16
8366;BME280;4220;42.502;24.188;2023-04-07T09:23:51;95045.16;;;8.60;62.26
8366;BME280;4220;42.502;24.188;2023-04-07T09:26:20;95041.66;;;8.66;60.14
8366;BME280;4220;42.502;24.188;2023-04-07T09:28:52;95054.97;;;8.90;59.76
8366;BME280;4220;42.502;24.188;2023-04-07T09:31:22;95048.56;;;9.04;59.66
8366;BME280;4220;42.502;24.188;2023-04-07T09:33:50;95037.25;;;9.22;58.91
8366;BME280;4220;42.502;24.188;2023-04-07T09:36:17;95043.44;;;9.16;59.93
8366;BME280;4220;42.502;24.188;2023-04-07T09:38:44;95036.19;;;9.30;59.47
8366;BME280;4220;42.502;24.188;2023-04-07T09:41:13;95042.16;;;9.50;59.63
8366;BME280;4220;42.502;24.188;2023-04-07T09:43:41;95054.56;;;9.49;59.80
8366;BME280;4220;42.502;24.188;2023-04-07T09:46:11;95029.25;;;9.04;59.02
8366;BME280;4220;42.502;24.188;2023-04-07T09:48:40;95048.59;;;9.29;59.93
8366;BME280;4220;42.502;24.188;2023-04-07T09:51:09;95041.56;;;9.48;57.40
8366;BME280;4220;42.502;24.188;2023-04-07T09:53:44;95034.44;;;9.48;58.46
8366;BME280;4220;42.502;24.188;2023-04-07T09:56:12;95031.94;;;9.53;59.55
8366;BME280;4220;42.502;24.188;2023-04-07T09:58:42;95044.06;;;9.36;58.69
8366;BME280;4220;42.502;24.188;2023-04-07T10:01:10;95034.22;;;9.74;59.44
8366;BME280;4220;42.502;24.188;2023-04-07T10:03:37;95037.84;;;10.41;57.22
8366;BME280;4220;42.502;24.188;2023-04-07T10:06:06;95037.69;;;10.54;56.30
8366;BME280;4220;42.502;24.188;2023-04-07T10:08:34;95035.47;;;10.69;55.30
8366;BME280;4220;42.502;24.188;2023-04-07T10:11:03;95025.81;;;10.75;55.05
8366;BME280;4220;42.502;24.188;2023-04-07T10:13:32;95032.22;;;10.85;55.94
8366;BME280;4220;42.502;24.188;2023-04-07T10:16:02;95034.28;;;10.65;55.14
8366;BME280;4220;42.502;24.188;2023-04-07T10:18:30;95029.03;;;10.29;55.63
8366;BME280;4220;42.502;24.188;2023-04-07T10:20:59;95038.72;;;10.35;54.60
8366;BME280;4220;42.502;24.188;2023-04-07T10:23:36;95041.53;;;10.40;55.75
8366;BME280;4220;42.502;24.188;2023-04-07T10:26:06;95038.94;;;10.15;56.30
8366;BME280;4220;42.502;24.188;2023-04-07T10:28:37;95030.19;;;10.51;56.42
8366;BME280;4220;42.502;24.188;2023-04-07T10:31:04;95021.25;;;10.93;56.01
8366;BME280;4220;42.502;24.188;2023-04-07T10:33:46;95026.94;;;11.27;54.20
8366;BME280;4220;42.502;24.188;2023-04-07T10:36:13;95035.72;;;11.39;54.71
8366;BME280;4220;42.502;24.188;2023-04-07T10:39:20;95034.09;;;11.38;55.03
8366;BME280;4220;42.502;24.188;2023-04-07T10:41:48;95035.34;;;10.94;56.00
8366;BME280;4220;42.502;24.188;2023-04-07T10:47:22;95034.41;;;10.88;54.75
8366;BME280;4220;42.502;24.188;2023-04-07T10:50:18;95031.41;;;11.14;54.13
8366;BME280;4220;42.502;24.188;2023-04-07T10:52:46;95040.03;;;11.63;53.66
8366;BME280;4220;42.502;24.188;2023-04-07T10:55:32;94998.63;;;11.85;51.77
8366;BME280;4220;42.502;24.188;2023-04-07T10:58:15;95032.81;;;12.39;51.27
8366;BME280;4220;42.502;24.188;2023-04-07T11:03:59;95021.59;;;12.37;52.22
8366;BME280;4220;42.502;24.188;2023-04-07T11:06:26;95029.56;;;12.37;51.02
8366;BME280;4220;42.502;24.188;2023-04-07T11:08:53;95025.19;;;11.85;51.36
8366;BME280;4220;42.502;24.188;2023-04-07T11:11:39;95027.53;;;11.93;52.21
8366;BME280;4220;42.502;24.188;2023-04-07T11:14:06;95024.16;;;12.09;51.32
8366;BME280;4220;42.502;24.188;2023-04-07T11:16:35;95025.91;;;12.15;52.85
8366;BME280;4220;42.502;24.188;2023-04-07T11:19:02;95012.94;;;11.72;52.14
8366;BME280;4220;42.502;24.188;2023-04-07T11:21:29;95017.34;;;11.90;52.18
8366;BME280;4220;42.502;24.188;2023-04-07T11:23:56;95030.28;;;11.98;51.03
8366;BME280;4220;42.502;24.188;2023-04-07T11:26:23;95029.72;;;12.08;51.29
8366;BME280;4220;42.502;24.188;2023-04-07T11:28:52;95009.03;;;11.98;50.99
8366;BME280;4220;42.502;24.188;2023-04-07T11:31:23;95019.69;;;12.61;50.32
8366;BME280;4220;42.502;24.188;2023-04-07T11:33:51;95005.47;;;12.56;48.93
8366;BME280;4220;42.502;24.188;2023-04-07T11:36:26;95025.41;;;12.41;50.49
8366;BME280;4220;42.502;24.188;2023-04-07T11:38:53;95023.09;;;12.22;50.40
8366;BME280;4220;42.502;24.188;2023-04-07T11:41:20;95015.59;;;11.72;51.26
8366;BME280;4220;42.502;24.188;2023-04-07T11:43:47;95025.56;;;11.36;51.74
8366;BME280;4220;42.502;24.188;2023-04-07T11:46:17;95024.75;;;11.35;51.65
8366;BME280;4220;42.502;24.188;2023-04-07T11:48:44;95006.88;;;11.42;51.44
8366;BME280;4220;42.502;24.188;2023-04-07T11:51:16;95009.03;;;11.98;50.67
8366;BME280;4220;42.502;24.188;2023-04-07T11:53:44;95020.72;;;13.00;49.34
8366;BME280;4220;42.502;24.188;2023-04-07T11:56:14;95012.47;;;13.58;46.41
8366;BME280;4220;42.502;24.188;2023-04-07T11:58:46;95011.31;;;14.04;44.55
8366;BME280;4220;42.502;24.188;2023-04-07T12:01:13;95013.81;;;14.10;41.88
8366;BME280;4220;42.502;24.188;2023-04-07T12:03:56;95011.09;;;13.55;40.51
8366;BME280;4220;42.502;24.188;2023-04-07T12:06:27;95023.69;;;13.43;41.53
8366;BME280;4220;42.502;24.188;2023-04-07T12:08:55;95019.16;;;13.60;41.45
8366;BME280;4220;42.502;24.188;2023-04-07T12:11:22;95019.81;;;13.06;41.03
8366;BME280;4220;42.502;24.188;2023-04-07T12:13:49;95015.16;;;13.01;42.02
8366;BME280;4220;42.502;24.188;2023-04-07T12:16:16;95024.00;;;12.90;41.85
8366;BME280;4220;42.502;24.188;2023-04-07T12:18:43;95023.22;;;12.90;41.91
8366;BME280;4220;42.502;24.188;2023-04-07T12:21:11;95024.81;;;12.91;42.42
8366;BME280;4220;42.502;24.188;2023-04-07T12:23:38;95017.25;;;13.11;41.51
8366;BME280;4220;42.502;24.188;2023-04-07T12:26:05;95042.97;;;13.34;42.32
8366;BME280;4220;42.502;24.188;2023-04-07T12:28:32;95025.38;;;12.93;41.17
8366;BME280;4220;42.502;24.188;2023-04-07T12:30:59;95047.41;;;12.25;42.03
8366;BME280;4220;42.502;24.188;2023-04-07T12:33:26;95039.53;;;12.30;42.16
8366;BME280;4220;42.502;24.188;2023-04-07T12:35:52;95037.19;;;12.34;42.67
8366;BME280;4220;42.502;24.188;2023-04-07T12:38:21;95044.75;;;12.77;41.26
8366;BME280;4220;42.502;24.188;2023-04-07T12:40:48;95036.16;;;12.35;41.89
8366;BME280;4220;42.502;24.188;2023-04-07T12:43:14;95043.25;;;12.18;42.02
8366;BME280;4220;42.502;24.188;2023-04-07T12:45:41;95050.28;;;12.01;42.08
8366;BME280;4220;42.502;24.188;2023-04-07T12:48:08;95040.00;;;12.16;42.68
8366;BME280;4220;42.502;24.188;2023-04-07T12:50:35;95058.25;;;12.12;42.18
8366;BME280;4220;42.502;24.188;2023-04-07T12:53:02;95047.28;;;11.74;42.54
8366;BME280;4220;42.502;24.188;2023-04-07T12:55:31;95055.00;;;11.75;43.24
8366;BME280;4220;42.502;24.188;2023-04-07T12:58:00;95035.25;;;11.83;42.78
8366;BME280;4220;42.502;24.188;2023-04-07T13:00:26;95043.72;;;12.03;42.88
8366;BME280;4220;42.502;24.188;2023-04-07T13:02:53;95043.56;;;11.75;43.53
8366;BME280;4220;42.502;24.188;2023-04-07T13:05:20;95061.38;;;11.86;43.05
8366;BME280;4220;42.502;24.188;2023-04-07T13:07:48;95039.34;;;11.67;43.27
8366;BME280;4220;42.502;24.188;2023-04-07T13:10:15;95050.16;;;11.84;42.72
8366;BME280;4220;42.502;24.188;2023-04-07T13:12:43;95050.88;;;11.91;42.17
8366;BME280;4220;42.502;24.188;2023-04-07T13:15:10;95050.88;;;11.91;41.97
8366;BME280;4220;42.502;24.188;2023-04-07T13:17:37;95047.41;;;12.25;42.64
8366;BME280;4220;42.502;24.188;2023-04-07T13:20:05;95037.34;;;12.27;41.94
8366;BME280;4220;42.502;24.188;2023-04-07T13:22:33;95039.75;;;12.17;42.00
8366;BME280;4220;42.502;24.188;2023-04-07T13:24:59;95038.84;;;12.23;42.76
8366;BME280;4220;42.502;24.188;2023-04-07T13:27:26;95042.31;;;12.75;41.56
8366;BME280;4220;42.502;24.188;2023-04-07T13:29:54;95040.31;;;12.94;40.74